createdAt,value
2022-08-29T00:00:28.123Z,18.36
2022-08-29T00:02:58.123Z,18.22
2022-08-29T00:05:28.397Z,18.24
2022-08-29T00:07:57.437Z,18.00
2022-08-29T00:10:24.248Z,18.01
2022-08-29T00:12:51.380Z,18.08
2022-08-29T00:15:19.998Z,18.31
2022-08-29T00:17:46.918Z,18.37
2022-08-29T00:20:18.266Z,18.20
2022-08-29T00:22:45.333Z,18.25
2022-08-29T00:25:13.724Z,17.85
2022-08-29T00:27:40.862Z,18.21
2022-08-29T00:30:13.175Z,18.17
2022-08-29T00:32:40.657Z,17.98
2022-08-29T00:35:35.568Z,18.16
2022-08-29T00:38:06.670Z,17.87
2022-08-29T00:40:47.843Z,18.22
2022-08-29T00:43:21.880Z,18.15
2022-08-29T00:46:12.650Z,18.16
2022-08-29T00:48:41.214Z,18.16
2022-08-29T00:51:15.237Z,18.18
2022-08-29T00:53:45.093Z,18.10
2022-08-29T00:56:14.902Z,18.16
2022-08-29T00:58:47.782Z,18.13
2022-08-29T01:01:15.074Z,18.09
2022-08-29T01:03:43.260Z,18.19
2022-08-29T01:06:11.572Z,18.12
2022-08-29T01:08:38.304Z,18.12
2022-08-29T01:11:24.174Z,17.90
2022-08-29T01:13:54.374Z,18.07
2022-08-29T01:16:24.380Z,18.16
2022-08-29T01:18:56.956Z,18.09
2022-08-29T01:21:52.901Z,18.22
2022-08-29T01:24:38.342Z,18.27
2022-08-29T01:27:05.903Z,18.17
2022-08-29T01:29:32.875Z,18.10
2022-08-29T01:32:01.021Z,18.13
2022-08-29T01:34:29.356Z,18.14
2022-08-29T01:37:01.998Z,18.13
2022-08-29T01:39:34.085Z,18.13
2022-08-29T01:42:07.712Z,17.85
2022-08-29T01:44:34.529Z,18.05
2022-08-29T01:47:03.404Z,17.93
2022-08-29T01:49:33.146Z,17.85
2022-08-29T01:52:00.746Z,18.06
2022-08-29T01:54:29.355Z,17.68
2022-08-29T01:56:56.627Z,17.89
2022-08-29T01:59:27.417Z,17.64
2022-08-29T02:02:05.358Z,18.05
2022-08-29T02:04:32.969Z,18.04
2022-08-29T02:07:00.462Z,17.76
2022-08-29T02:09:28.284Z,18.13
2022-08-29T02:11:56.995Z,18.10
2022-08-29T02:14:24.833Z,17.95
2022-08-29T02:16:51.713Z,17.89
2022-08-29T02:19:19.562Z,17.92
2022-08-29T02:21:46.612Z,17.78
2022-08-29T02:24:25.479Z,17.99
2022-08-29T02:27:12.725Z,17.81
2022-08-29T02:29:39.894Z,17.85
2022-08-29T02:32:09.895Z,17.71
2022-08-29T02:34:37.163Z,17.33
2022-08-29T02:37:06.060Z,17.61
2022-08-29T02:39:33.383Z,17.25
2022-08-29T02:42:00.187Z,17.40
2022-08-29T02:44:27.043Z,17.41
2022-08-29T02:46:53.981Z,17.23
2022-08-29T02:49:20.803Z,17.46
2022-08-29T02:51:48.352Z,17.23
2022-08-29T02:54:15.258Z,17.49
2022-08-29T02:56:42.170Z,17.50
2022-08-29T02:59:09.115Z,17.29
2022-08-29T03:01:38.716Z,17.34
2022-08-29T03:04:05.895Z,17.52
2022-08-29T03:06:32.817Z,17.58
2022-08-29T03:08:59.982Z,17.36
2022-08-29T03:11:28.729Z,17.24
2022-08-29T03:13:57.479Z,17.67
2022-08-29T03:16:26.004Z,17.49
2022-08-29T03:18:53.130Z,17.49
2022-08-29T03:21:23.007Z,17.43
2022-08-29T03:23:50.976Z,17.50
2022-08-29T03:26:19.241Z,17.53
2022-08-29T03:28:46.554Z,17.15
2022-08-29T03:31:13.593Z,17.63
2022-08-29T03:33:40.646Z,17.52
2022-08-29T03:36:13.951Z,17.59
2022-08-29T03:38:44.414Z,17.65
2022-08-29T03:41:11.568Z,17.63
2022-08-29T03:43:38.863Z,17.61
2022-08-29T03:46:06.798Z,17.46
2022-08-29T03:48:33.944Z,17.47
2022-08-29T03:51:01.333Z,17.64
2022-08-29T03:53:28.663Z,17.57
2022-08-29T03:55:57.565Z,17.62
2022-08-29T03:58:25.197Z,17.32
2022-08-29T04:00:51.988Z,17.51
2022-08-29T04:03:20.246Z,17.19
2022-08-29T04:05:52.145Z,17.57
2022-08-29T04:08:22.173Z,17.59
2022-08-29T04:10:48.995Z,17.59
2022-08-29T04:13:16.073Z,17.57
2022-08-29T04:15:43.223Z,17.45
2022-08-29T04:18:11.901Z,17.52
2022-08-29T04:20:41.818Z,17.56
2022-08-29T04:23:08.952Z,17.46
2022-08-29T04:25:37.748Z,17.44
2022-08-29T04:28:13.021Z,17.51
2022-08-29T04:30:40.609Z,17.42
2022-08-29T04:33:08.305Z,17.49
2022-08-29T04:35:40.402Z,17.30
2022-08-29T04:38:09.230Z,17.49
2022-08-29T04:40:46.023Z,17.54
2022-08-29T04:43:13.921Z,17.44
2022-08-29T04:45:40.878Z,17.58
2022-08-29T04:48:11.088Z,17.62
2022-08-29T04:50:38.194Z,17.65
2022-08-29T04:53:07.036Z,17.78
2022-08-29T04:55:34.918Z,17.74
2022-08-29T04:58:06.621Z,17.72
2022-08-29T05:00:38.573Z,17.61
2022-08-29T05:03:07.996Z,17.64
2022-08-29T05:05:34.949Z,17.43
2022-08-29T05:08:09.733Z,17.61
2022-08-29T05:10:36.662Z,17.64
2022-08-29T05:13:03.802Z,17.43
2022-08-29T05:15:31.487Z,17.69
2022-08-29T05:17:58.259Z,17.63
2022-08-29T05:20:24.973Z,17.59
2022-08-29T05:22:51.728Z,17.70
2022-08-29T05:25:18.756Z,17.65
2022-08-29T05:27:46.637Z,17.74
2022-08-29T05:30:14.184Z,17.69
2022-08-29T05:32:40.932Z,17.75
2022-08-29T05:35:08.202Z,17.88
2022-08-29T05:37:47.285Z,17.89
2022-08-29T05:40:14.166Z,17.80
2022-08-29T05:42:41.165Z,17.62
2022-08-29T05:45:08.817Z,17.60
2022-08-29T05:47:35.643Z,17.75
2022-08-29T05:50:02.572Z,17.60
2022-08-29T05:52:29.451Z,18.03
2022-08-29T05:54:56.306Z,17.86
2022-08-29T05:57:23.880Z,18.24
2022-08-29T05:59:53.165Z,18.07
2022-08-29T06:02:21.934Z,18.37
2022-08-29T06:04:49.661Z,18.16
2022-08-29T06:07:16.566Z,18.35
2022-08-29T06:09:44.093Z,18.37
2022-08-29T06:12:13.092Z,18.22
2022-08-29T06:14:40.030Z,17.90
2022-08-29T06:17:09.244Z,18.03
2022-08-29T06:19:36.582Z,18.23
2022-08-29T06:22:09.704Z,18.31
2022-08-29T06:24:38.108Z,18.09
2022-08-29T06:27:04.989Z,18.37
2022-08-29T06:29:31.703Z,18.31
2022-08-29T06:32:01.509Z,18.57
2022-08-29T06:34:28.310Z,18.59
2022-08-29T06:36:55.166Z,18.58
2022-08-29T06:39:22.137Z,18.42
2022-08-29T06:41:49.274Z,18.78
2022-08-29T06:44:16.621Z,18.74
2022-08-29T06:46:47.420Z,18.83
2022-08-29T06:49:16.532Z,18.85
2022-08-29T06:51:49.198Z,18.88
2022-08-29T06:54:17.804Z,18.94
2022-08-29T06:56:44.764Z,19.00
2022-08-29T06:59:12.054Z,19.17
2022-08-29T07:01:41.452Z,19.10
2022-08-29T07:04:14.609Z,19.30
2022-08-29T07:06:42.172Z,19.42
2022-08-29T07:09:09.338Z,19.84
2022-08-29T07:11:41.206Z,19.77
2022-08-29T07:14:09.152Z,20.00
2022-08-29T07:16:36.528Z,19.86
2022-08-29T07:19:05.654Z,19.76
2022-08-29T07:21:33.025Z,20.01
2022-08-29T07:24:00.065Z,20.06
2022-08-29T07:26:31.083Z,19.83
2022-08-29T07:29:03.447Z,19.94
2022-08-29T07:31:31.288Z,19.77
2022-08-29T07:34:02.157Z,19.75
2022-08-29T07:36:34.222Z,19.60
2022-08-29T07:39:03.605Z,19.81
2022-08-29T07:41:30.393Z,19.84
2022-08-29T07:43:58.122Z,20.03
2022-08-29T07:46:26.987Z,20.17
2022-08-29T07:48:53.950Z,20.34
2022-08-29T07:51:23.435Z,20.43
2022-08-29T07:53:51.637Z,20.84
2022-08-29T07:56:25.916Z,21.12
2022-08-29T07:58:53.962Z,21.39
2022-08-29T08:01:21.999Z,21.63
2022-08-29T08:03:50.740Z,21.74
2022-08-29T08:06:19.726Z,21.96
2022-08-29T08:08:47.220Z,22.13
2022-08-29T08:11:14.412Z,22.25
2022-08-29T08:13:41.493Z,22.78
2022-08-29T08:16:11.404Z,23.09
2022-08-29T08:18:39.343Z,23.31
2022-08-29T08:21:06.243Z,23.12
2022-08-29T08:23:33.588Z,22.89
2022-08-29T08:26:01.031Z,22.79
2022-08-29T08:28:29.312Z,22.61
2022-08-29T08:30:57.153Z,22.61
2022-08-29T08:33:24.993Z,22.88
2022-08-29T08:35:52.125Z,23.28
2022-08-29T08:38:19.009Z,23.70
2022-08-29T08:41:07.859Z,23.87
2022-08-29T08:44:04.197Z,23.82
2022-08-29T08:46:43.725Z,24.16
2022-08-29T08:49:23.432Z,24.20
2022-08-29T08:52:02.994Z,24.09
2022-08-29T08:54:36.744Z,23.67
2022-08-29T08:57:09.913Z,23.67
2022-08-29T08:59:45.472Z,23.48
2022-08-29T09:02:26.996Z,23.33
2022-08-29T09:05:12.364Z,23.26
2022-08-29T09:08:13.683Z,23.16
2022-08-29T09:10:58.961Z,23.02
2022-08-29T09:13:32.277Z,22.94
2022-08-29T09:16:05.354Z,22.95
2022-08-29T09:18:41.618Z,23.20
2022-08-29T09:21:40.027Z,23.97
2022-08-29T09:24:11.230Z,24.66
2022-08-29T09:26:38.483Z,25.44
2022-08-29T09:29:10.083Z,25.71
2022-08-29T09:31:36.998Z,25.85
2022-08-29T09:34:11.685Z,26.32
2022-08-29T09:36:49.661Z,26.90
2022-08-29T09:39:32.880Z,26.96
2022-08-29T09:42:17.621Z,27.12
2022-08-29T09:44:54.767Z,27.66
2022-08-29T09:47:25.450Z,27.53
2022-08-29T09:50:00.976Z,27.31
2022-08-29T09:52:28.335Z,27.40
2022-08-29T09:54:55.633Z,27.52
2022-08-29T09:57:26.067Z,27.38
2022-08-29T10:00:13.934Z,26.89
2022-08-29T10:02:43.905Z,27.49
2022-08-29T10:05:31.201Z,27.28
2022-08-29T10:07:58.222Z,27.27
2022-08-29T10:10:28.805Z,26.75
2022-08-29T10:13:22.268Z,26.04
2022-08-29T10:16:07.290Z,25.86
2022-08-29T10:18:58.840Z,26.27
2022-08-29T10:21:57.427Z,26.86
2022-08-29T10:24:36.164Z,27.61
2022-08-29T10:27:15.944Z,27.80
2022-08-29T10:30:08.134Z,27.58
2022-08-29T10:32:37.572Z,27.07
2022-08-29T10:35:09.437Z,26.81
2022-08-29T10:37:36.202Z,27.29
2022-08-29T10:40:17.806Z,27.63
2022-08-29T10:42:47.572Z,27.67
2022-08-29T10:45:40.621Z,27.61
2022-08-29T10:48:29.966Z,27.45
2022-08-29T10:51:27.350Z,27.98
2022-08-29T10:54:03.502Z,28.45
2022-08-29T10:56:40.726Z,29.08
2022-08-29T10:59:24.556Z,29.31
2022-08-29T11:02:01.096Z,29.15
2022-08-29T11:04:37.663Z,29.31
2022-08-29T11:07:16.512Z,28.85
2022-08-29T11:09:47.454Z,28.28
2022-08-29T11:12:41.405Z,27.91
2022-08-29T11:15:27.232Z,27.40
2022-08-29T11:18:26.574Z,27.13
2022-08-29T11:21:01.089Z,27.17
2022-08-29T11:23:40.953Z,27.63
2022-08-29T11:26:10.825Z,27.50
2022-08-29T11:29:07.852Z,26.90
2022-08-29T11:32:02.093Z,26.84
2022-08-29T11:34:52.013Z,26.78
2022-08-29T11:37:40.332Z,27.01
2022-08-29T11:40:48.736Z,26.99
2022-08-29T11:43:26.287Z,27.06
2022-08-29T11:46:06.227Z,26.86
2022-08-29T11:48:39.142Z,27.23
2022-08-29T11:51:27.388Z,27.91
2022-08-29T11:53:54.128Z,28.85
2022-08-29T11:56:27.820Z,29.28
2022-08-29T11:58:59.793Z,29.18
2022-08-29T12:01:35.778Z,29.38
2022-08-29T12:04:08.342Z,29.44
2022-08-29T12:07:02.551Z,29.98
2022-08-29T12:09:56.255Z,30.47
2022-08-29T12:12:53.236Z,29.82
2022-08-29T12:15:41.104Z,29.33
2022-08-29T12:18:07.829Z,29.13
2022-08-29T12:20:41.523Z,28.90
2022-08-29T12:23:11.554Z,28.98
2022-08-29T12:25:38.307Z,29.63
2022-08-29T12:28:28.032Z,30.09
2022-08-29T12:30:57.481Z,30.80
2022-08-29T12:33:36.565Z,31.05
2022-08-29T12:36:31.398Z,31.19
2022-08-29T12:39:19.355Z,30.11
2022-08-29T12:41:52.237Z,29.44
2022-08-29T12:44:26.972Z,28.82
2022-08-29T12:47:01.185Z,28.41
2022-08-29T12:49:36.092Z,28.48
2022-08-29T12:52:07.530Z,28.30
2022-08-29T12:54:41.535Z,27.93
2022-08-29T12:57:23.883Z,27.82
2022-08-29T12:59:55.175Z,27.42
2022-08-29T13:02:31.034Z,27.62
2022-08-29T13:04:58.763Z,27.21
2022-08-29T13:07:27.557Z,27.47
2022-08-29T13:10:00.034Z,27.56
2022-08-29T13:12:28.932Z,27.18
2022-08-29T13:15:16.821Z,27.30
2022-08-29T13:17:48.156Z,26.97
2022-08-29T13:20:37.078Z,27.15
2022-08-29T13:23:12.954Z,26.73
2022-08-29T13:25:47.210Z,26.58
2022-08-29T13:28:17.185Z,27.18
2022-08-29T13:30:46.969Z,27.03
2022-08-29T13:33:35.107Z,27.68
2022-08-29T13:36:28.496Z,28.06
2022-08-29T13:39:17.456Z,28.87
2022-08-29T13:41:47.684Z,29.04
2022-08-29T13:44:20.045Z,29.35
2022-08-29T13:49:31.344Z,29.98
2022-08-29T13:51:59.519Z,29.83
2022-08-29T13:54:30.817Z,30.51
2022-08-29T13:57:05.794Z,30.94
2022-08-29T13:59:36.959Z,30.81
2022-08-29T14:02:11.802Z,30.68
2022-08-29T14:04:41.029Z,31.01
2022-08-29T14:07:28.893Z,30.81
2022-08-29T14:09:55.807Z,30.60
2022-08-29T14:12:33.034Z,30.33
2022-08-29T14:15:04.131Z,29.62
2022-08-29T14:17:35.352Z,28.85
2022-08-29T14:20:02.406Z,28.22
2022-08-29T14:22:29.176Z,27.92
2022-08-29T14:24:55.989Z,27.84
2022-08-29T14:27:22.956Z,28.14
2022-08-29T14:29:51.294Z,28.21
2022-08-29T14:32:18.197Z,28.21
2022-08-29T14:34:50.952Z,28.52
2022-08-29T14:37:18.596Z,29.03
2022-08-29T14:39:45.421Z,28.42
2022-08-29T14:42:17.526Z,28.65
2022-08-29T14:44:44.380Z,28.60
2022-08-29T14:47:11.574Z,28.48
2022-08-29T14:49:38.707Z,28.20
2022-08-29T14:52:05.854Z,28.02
2022-08-29T14:54:32.993Z,27.54
2022-08-29T14:57:00.705Z,27.44
2022-08-29T14:59:28.165Z,27.25
2022-08-29T15:01:55.725Z,26.95
2022-08-29T15:04:35.811Z,26.84
2022-08-29T15:07:09.578Z,26.78
2022-08-29T15:09:36.762Z,26.97
2022-08-29T15:12:04.105Z,27.73
2022-08-29T15:14:30.973Z,27.74
2022-08-29T15:16:57.690Z,28.13
2022-08-29T15:19:53.673Z,28.41
2022-08-29T15:22:12.397Z,28.29
2022-08-29T15:24:39.843Z,27.94
2022-08-29T15:27:07.257Z,27.97
2022-08-29T15:29:35.644Z,27.92
2022-08-29T15:32:02.604Z,27.82
2022-08-29T15:34:29.851Z,27.86
2022-08-29T15:36:57.836Z,27.82
2022-08-29T15:39:28.128Z,27.37
2022-08-29T15:41:56.265Z,26.80
2022-08-29T15:44:23.607Z,26.47
2022-08-29T15:46:52.524Z,26.17
2022-08-29T15:49:22.422Z,26.03
2022-08-29T15:51:53.051Z,26.33
2022-08-29T15:54:21.240Z,26.50
2022-08-29T15:56:50.743Z,26.74
2022-08-29T15:59:24.884Z,26.75
2022-08-29T16:02:04.146Z,27.04
2022-08-29T16:04:31.386Z,27.07
2022-08-29T16:06:58.413Z,26.84
2022-08-29T16:09:25.366Z,26.67
2022-08-29T16:11:52.516Z,26.88
2022-08-29T16:17:07.983Z,26.86
2022-08-29T16:19:37.362Z,26.66
2022-08-29T16:22:07.934Z,26.80
2022-08-29T16:24:35.134Z,26.56
2022-08-29T16:27:02.194Z,26.20
2022-08-29T16:29:29.469Z,26.04
2022-08-29T16:31:58.499Z,25.96
2022-08-29T16:34:26.917Z,25.47
2022-08-29T16:36:57.910Z,25.47
2022-08-29T16:39:25.159Z,25.11
2022-08-29T16:41:52.001Z,24.92
2022-08-29T16:44:19.679Z,24.58
2022-08-29T16:46:46.623Z,24.37
2022-08-29T16:49:13.371Z,24.13
2022-08-29T16:51:40.260Z,23.82
2022-08-29T16:54:07.108Z,23.54
2022-08-29T16:56:33.991Z,23.51
2022-08-29T16:59:01.853Z,23.53
2022-08-29T17:01:43.130Z,23.25
2022-08-29T17:04:32.867Z,22.91
2022-08-29T17:07:00.603Z,22.55
2022-08-29T17:09:27.486Z,22.38
2022-08-29T17:11:56.238Z,22.06
2022-08-29T17:14:24.840Z,22.25
2022-08-29T17:16:54.163Z,22.10
2022-08-29T17:19:22.700Z,21.93
2022-08-29T17:21:49.505Z,21.72
2022-08-29T17:24:16.856Z,21.47
2022-08-29T17:26:46.719Z,21.56
2022-08-29T17:29:14.415Z,21.35
2022-08-29T17:31:41.262Z,21.25
2022-08-29T17:34:08.978Z,21.11
2022-08-29T17:36:37.065Z,20.86
2022-08-29T17:39:05.819Z,20.82
2022-08-29T17:41:33.591Z,20.63
2022-08-29T17:44:02.206Z,20.54
2022-08-29T17:46:29.784Z,20.39
2022-08-29T17:48:57.121Z,20.30
2022-08-29T17:51:24.413Z,20.23
2022-08-29T17:53:51.794Z,20.13
2022-08-29T17:56:28.143Z,20.14
2022-08-29T17:58:55.344Z,19.99
2022-08-29T18:01:22.334Z,19.99
2022-08-29T18:03:49.194Z,19.70
2022-08-29T18:06:16.143Z,19.53
2022-08-29T18:08:44.220Z,19.44
2022-08-29T18:11:15.758Z,19.38
2022-08-29T18:13:42.801Z,19.37
2022-08-29T18:16:11.776Z,19.26
2022-08-29T18:18:39.476Z,19.27
2022-08-29T18:21:06.607Z,19.16
2022-08-29T18:23:33.853Z,19.15
2022-08-29T18:26:01.738Z,19.14
2022-08-29T18:28:28.821Z,19.18
2022-08-29T18:30:55.877Z,19.16
2022-08-29T18:33:26.256Z,18.94
2022-08-29T18:35:58.484Z,18.77
2022-08-29T18:38:26.102Z,18.75
2022-08-29T18:40:53.680Z,18.76
2022-08-29T18:43:22.738Z,18.61
2022-08-29T18:45:50.142Z,18.62
2022-08-29T18:48:17.477Z,18.54
2022-08-29T18:50:45.316Z,18.73
2022-08-29T18:53:24.266Z,18.61
2022-08-29T18:55:53.087Z,18.38
2022-08-29T18:58:26.826Z,18.34
2022-08-29T19:00:54.463Z,18.26
2022-08-29T19:03:22.124Z,18.17
2022-08-29T19:05:52.131Z,18.10
2022-08-29T19:08:22.204Z,18.02
2022-08-29T19:10:49.878Z,18.04
2022-08-29T19:13:22.563Z,17.98
2022-08-29T19:15:56.293Z,18.01
2022-08-29T19:18:23.414Z,18.03
2022-08-29T19:21:03.087Z,17.88
2022-08-29T19:23:33.156Z,17.94
2022-08-29T19:26:04.892Z,17.64
2022-08-29T19:28:32.759Z,17.72
2022-08-29T19:31:02.693Z,17.61
2022-08-29T19:33:30.876Z,17.65
2022-08-29T19:35:58.934Z,17.71
2022-08-29T19:38:28.275Z,17.64
2022-08-29T19:40:57.814Z,17.51
2022-08-29T19:43:31.431Z,17.43
2022-08-29T19:46:01.966Z,17.50
2022-08-29T19:48:30.415Z,17.35
2022-08-29T19:50:59.126Z,17.36
2022-08-29T19:53:27.453Z,17.27
2022-08-29T19:55:57.868Z,17.27
2022-08-29T19:58:31.303Z,17.16
2022-08-29T20:01:05.000Z,17.25
2022-08-29T20:03:35.223Z,17.10
2022-08-29T20:06:07.675Z,16.94
2022-08-29T20:08:37.412Z,17.08
2022-08-29T20:11:06.618Z,17.06
2022-08-29T20:13:36.428Z,16.98
2022-08-29T20:16:10.236Z,17.00
2022-08-29T20:18:41.318Z,17.00
2022-08-29T20:21:11.019Z,16.82
2022-08-29T20:23:41.457Z,16.82
2022-08-29T20:26:17.100Z,16.77
2022-08-29T20:28:44.374Z,16.54
2022-08-29T20:31:13.528Z,16.61
2022-08-29T20:33:42.986Z,16.63
2022-08-29T20:36:29.315Z,16.58
2022-08-29T20:38:56.908Z,16.71
2022-08-29T20:41:24.102Z,16.59
2022-08-29T20:43:51.056Z,16.32
2022-08-29T20:46:18.183Z,16.60
2022-08-29T20:48:53.184Z,16.39
2022-08-29T20:51:24.631Z,16.57
2022-08-29T20:53:52.735Z,16.34
2022-08-29T20:56:21.285Z,16.66
2022-08-29T20:58:48.828Z,16.75
2022-08-29T21:01:15.684Z,16.46
2022-08-29T21:04:01.587Z,16.39
2022-08-29T21:06:28.752Z,16.40
2022-08-29T21:08:57.944Z,16.28
2022-08-29T21:11:24.973Z,16.28
2022-08-29T21:13:53.476Z,16.37
2022-08-29T21:16:21.372Z,16.36
2022-08-29T21:18:53.094Z,16.34
2022-08-29T21:21:24.713Z,16.33
2022-08-29T21:23:52.223Z,16.20
2022-08-29T21:26:19.273Z,16.29
2022-08-29T21:28:47.298Z,16.28
2022-08-29T21:31:15.724Z,16.32
2022-08-29T21:33:46.136Z,16.26
2022-08-29T21:36:15.663Z,16.42
2022-08-29T21:38:42.522Z,16.43
2022-08-29T21:41:12.167Z,16.06
2022-08-29T21:43:40.083Z,16.57
2022-08-29T21:46:29.975Z,16.77
2022-08-29T21:49:00.247Z,16.85
2022-08-29T21:51:29.481Z,16.77
2022-08-29T21:53:58.101Z,16.80
2022-08-29T21:56:27.062Z,16.75
2022-08-29T21:58:55.343Z,16.55
2022-08-29T22:01:30.128Z,16.25
2022-08-29T22:04:02.135Z,16.58
2022-08-29T22:06:29.624Z,16.66
2022-08-29T22:08:57.709Z,16.82
2022-08-29T22:11:37.132Z,16.73
2022-08-29T22:14:06.305Z,16.69
2022-08-29T22:16:33.566Z,16.87
2022-08-29T22:19:04.693Z,16.85
2022-08-29T22:21:48.762Z,16.75
2022-08-29T22:24:17.614Z,16.74
2022-08-29T22:26:45.483Z,16.63
2022-08-29T22:29:16.178Z,16.56
2022-08-29T22:31:44.296Z,16.69
2022-08-29T22:34:12.618Z,16.41
2022-08-29T22:36:39.492Z,16.67
2022-08-29T22:39:06.793Z,16.65
2022-08-29T22:41:34.056Z,16.54
2022-08-29T22:44:52.700Z,16.60
2022-08-29T22:46:48.830Z,16.54
2022-08-29T22:49:15.602Z,16.54
2022-08-29T22:51:42.424Z,16.17
2022-08-29T22:54:27.963Z,16.33
2022-08-29T22:56:55.277Z,16.57
2022-08-29T22:59:22.447Z,16.36
2022-08-29T23:03:33.332Z,16.82
2022-08-29T23:06:00.143Z,16.61
2022-08-29T23:08:27.460Z,16.54
2022-08-29T23:10:54.590Z,16.27
2022-08-29T23:13:24.042Z,16.44
2022-08-29T23:15:50.889Z,16.20
2022-08-29T23:18:17.815Z,16.36
2022-08-29T23:20:46.851Z,16.35
2022-08-29T23:23:13.885Z,16.29
2022-08-29T23:25:40.821Z,16.41
2022-08-29T23:28:07.613Z,16.36
2022-08-29T23:30:34.713Z,16.38
2022-08-29T23:33:01.460Z,16.23
2022-08-29T23:35:28.247Z,15.96
2022-08-29T23:37:54.984Z,15.96
2022-08-29T23:40:21.941Z,16.16
2022-08-29T23:42:48.976Z,16.16
2022-08-29T23:45:15.845Z,15.91
2022-08-29T23:47:42.842Z,16.11
2022-08-29T23:50:11.024Z,15.99
2022-08-29T23:52:37.723Z,15.79
2022-08-29T23:55:04.831Z,16.14
2022-08-29T23:57:31.582Z,16.37
